createdAt,value
2019-02-12T00:00:51.272Z,2.67
2019-02-12T00:03:20.975Z,2.95
2019-02-12T00:05:50.619Z,1.98
2019-02-12T00:08:21.297Z,2.42
2019-02-12T00:10:51.064Z,3.15
2019-02-12T00:13:20.841Z,1.82
2019-02-12T00:15:50.538Z,2.25
2019-02-12T00:18:20.188Z,1.62
2019-02-12T00:20:49.898Z,1.90
2019-02-12T00:23:20.173Z,1.55
2019-02-12T00:25:50.062Z,2.10
2019-02-12T00:28:19.661Z,2.02
2019-02-12T00:30:49.277Z,3.10
2019-02-12T00:33:18.945Z,2.65
2019-02-12T00:35:48.605Z,2.12
2019-02-12T00:38:18.276Z,2.08
2019-02-12T00:40:47.970Z,1.92
2019-02-12T00:43:17.587Z,1.98
2019-02-12T00:45:47.311Z,2.65
2019-02-12T00:48:16.929Z,2.67
2019-02-12T00:50:46.654Z,2.90
2019-02-12T00:53:16.283Z,2.47
2019-02-12T00:55:46.050Z,2.75
2019-02-12T00:58:15.704Z,1.30
2019-02-12T01:00:45.364Z,2.95
2019-02-12T01:03:15.200Z,2.90
2019-02-12T01:05:44.946Z,2.45
2019-02-12T01:08:14.652Z,2.45
2019-02-12T01:10:44.366Z,2.10
2019-02-12T01:13:13.989Z,1.85
2019-02-12T01:15:43.598Z,2.25
2019-02-12T01:18:13.279Z,2.15
2019-02-12T01:20:42.876Z,1.92
2019-02-12T01:23:12.534Z,2.05
2019-02-12T01:25:42.159Z,1.77
2019-02-12T01:28:11.737Z,2.92
2019-02-12T01:30:41.377Z,1.92
2019-02-12T01:33:11.025Z,2.25
2019-02-12T01:35:40.736Z,2.35
2019-02-12T01:38:10.352Z,2.85
2019-02-12T01:40:39.989Z,2.15
2019-02-12T01:43:09.658Z,2.52
2019-02-12T01:45:39.271Z,2.25
2019-02-12T01:48:08.916Z,3.05
2019-02-12T01:50:38.550Z,1.42
2019-02-12T01:53:08.207Z,1.37
2019-02-12T01:55:37.912Z,1.32
2019-02-12T01:58:07.682Z,1.52
2019-02-12T02:00:37.436Z,2.75
2019-02-12T02:03:07.105Z,2.45
2019-02-12T02:05:36.769Z,1.77
2019-02-12T02:08:06.421Z,1.85
2019-02-12T02:10:36.067Z,2.10
2019-02-12T02:13:05.716Z,2.33
2019-02-12T02:15:35.355Z,3.25
2019-02-12T02:18:05.002Z,1.67
2019-02-12T02:20:34.663Z,1.72
2019-02-12T02:23:04.298Z,0.95
2019-02-12T02:25:33.929Z,2.17
2019-02-12T02:28:03.624Z,2.62
2019-02-12T02:30:33.373Z,2.45
2019-02-12T02:33:03.011Z,1.60
2019-02-12T02:35:32.686Z,1.70
2019-02-12T02:38:02.304Z,2.85
2019-02-12T02:40:31.976Z,1.55
2019-02-12T02:43:01.628Z,1.85
2019-02-12T02:45:31.298Z,1.90
2019-02-12T02:48:00.941Z,1.57
2019-02-12T02:50:30.543Z,1.47
2019-02-12T02:53:00.180Z,2.30
2019-02-12T02:55:29.822Z,1.72
2019-02-12T02:57:59.569Z,2.15
2019-02-12T03:00:29.274Z,2.00
2019-02-12T03:02:58.889Z,2.58
2019-02-12T03:05:28.550Z,1.82
2019-02-12T03:07:58.148Z,1.72
2019-02-12T03:10:27.949Z,2.20
2019-02-12T03:12:57.598Z,1.85
2019-02-12T03:15:27.240Z,2.47
2019-02-12T03:17:56.843Z,1.75
2019-02-12T03:20:26.516Z,1.80
2019-02-12T03:22:56.110Z,2.47
2019-02-12T03:25:25.784Z,2.20
2019-02-12T03:27:55.379Z,2.22
2019-02-12T03:30:24.986Z,2.05
2019-02-12T03:32:54.628Z,2.08
2019-02-12T03:35:24.305Z,1.87
2019-02-12T03:37:53.922Z,2.05
2019-02-12T03:40:23.589Z,3.20
2019-02-12T03:42:53.205Z,2.25
2019-02-12T03:45:22.827Z,1.67
2019-02-12T03:47:52.487Z,1.52
2019-02-12T03:50:22.166Z,2.85
2019-02-12T03:52:51.806Z,2.30
2019-02-12T03:55:21.537Z,2.05
2019-02-12T03:57:52.086Z,1.82
2019-02-12T04:00:21.721Z,1.40
2019-02-12T04:03:04.020Z,2.33
2019-02-12T04:05:33.713Z,1.70
2019-02-12T04:08:03.637Z,1.77
2019-02-12T04:10:33.220Z,1.80
2019-02-12T04:13:02.926Z,1.72
2019-02-12T04:15:32.540Z,2.00
2019-02-12T04:18:02.210Z,2.37
2019-02-12T04:20:31.817Z,2.25
2019-02-12T04:23:01.515Z,1.45
2019-02-12T04:25:31.147Z,2.40
2019-02-12T04:28:00.873Z,2.00
2019-02-12T04:30:30.492Z,2.00
2019-02-12T04:33:00.094Z,1.55
2019-02-12T04:35:29.737Z,2.33
2019-02-12T04:37:59.440Z,1.62
2019-02-12T04:40:29.169Z,1.30
2019-02-12T04:42:58.812Z,2.25
2019-02-12T04:45:28.458Z,1.72
2019-02-12T04:47:58.132Z,1.52
2019-02-12T04:50:27.755Z,2.02
2019-02-12T04:52:57.435Z,2.35
2019-02-12T04:55:28.036Z,1.87
2019-02-12T04:57:57.705Z,2.45
2019-02-12T05:00:27.382Z,1.65
2019-02-12T05:02:57.099Z,1.80
2019-02-12T05:05:26.724Z,2.47
2019-02-12T05:07:56.381Z,2.35
2019-02-12T05:10:26.998Z,1.50
2019-02-12T05:12:56.622Z,1.42
2019-02-12T05:15:26.285Z,1.30
2019-02-12T05:17:55.896Z,2.60
2019-02-12T05:20:25.574Z,3.70
2019-02-12T05:22:55.250Z,2.67
2019-02-12T05:25:24.886Z,2.75
2019-02-12T05:27:54.521Z,1.70
2019-02-12T05:30:24.196Z,2.77
2019-02-12T05:32:53.900Z,2.30
2019-02-12T05:35:23.595Z,2.30
2019-02-12T05:37:53.288Z,1.50
2019-02-12T05:40:22.909Z,2.83
2019-02-12T05:42:52.566Z,1.45
2019-02-12T05:45:22.211Z,1.60
2019-02-12T05:47:51.883Z,1.72
2019-02-12T05:50:21.522Z,2.22
2019-02-12T05:52:54.434Z,2.08
2019-02-12T05:55:22.478Z,2.02
2019-02-12T05:57:52.136Z,2.30
2019-02-12T06:00:24.005Z,2.10
2019-02-12T06:02:53.679Z,2.15
2019-02-12T06:05:28.337Z,2.77
2019-02-12T06:07:58.054Z,1.95
2019-02-12T06:10:27.687Z,1.90
2019-02-12T06:12:57.398Z,2.33
2019-02-12T06:15:27.039Z,2.00
2019-02-12T06:17:56.699Z,2.37
2019-02-12T06:20:26.316Z,1.65
2019-02-12T06:23:03.403Z,1.90
2019-02-12T06:25:27.282Z,2.35
2019-02-12T06:27:56.913Z,2.80
2019-02-12T06:30:26.515Z,2.25
2019-02-12T06:32:56.141Z,1.92
2019-02-12T06:35:25.886Z,1.92
2019-02-12T06:37:55.614Z,2.50
2019-02-12T06:40:25.223Z,2.20
2019-02-12T06:42:54.869Z,2.50
2019-02-12T06:45:24.474Z,2.55
2019-02-12T06:47:54.199Z,1.82
2019-02-12T06:50:23.817Z,2.00
2019-02-12T06:52:53.401Z,3.08
2019-02-12T06:55:23.013Z,3.20
2019-02-12T06:57:52.647Z,2.00
2019-02-12T07:00:22.336Z,1.55
2019-02-12T07:03:10.030Z,1.40
2019-02-12T07:05:41.125Z,1.67
2019-02-12T07:08:29.658Z,1.82
2019-02-12T07:11:01.940Z,2.25
2019-02-12T07:13:46.387Z,2.22
2019-02-12T07:16:36.915Z,2.40
2019-02-12T07:20:02.943Z,2.85
2019-02-12T07:23:22.189Z,2.83
2019-02-12T07:26:05.670Z,1.57
2019-02-12T07:29:11.278Z,3.83
2019-02-12T07:32:08.965Z,2.60
2019-02-12T07:35:30.546Z,2.55
2019-02-12T07:38:22.686Z,1.75
2019-02-12T07:41:33.441Z,3.17
2019-02-12T07:44:30.028Z,2.33
2019-02-12T07:47:27.357Z,1.95
2019-02-12T07:50:42.308Z,1.90
2019-02-12T07:53:42.783Z,1.65
2019-02-12T07:56:48.151Z,2.92
2019-02-12T08:00:00.832Z,2.65
2019-02-12T08:03:05.625Z,2.27
2019-02-12T08:06:12.382Z,1.72
2019-02-12T08:09:43.918Z,2.90
2019-02-12T08:12:34.177Z,2.17
2019-02-12T08:15:44.754Z,1.92
2019-02-12T08:18:50.944Z,2.33
2019-02-12T08:21:38.934Z,1.70
2019-02-12T08:24:44.768Z,1.87
2019-02-12T08:27:49.581Z,1.92
2019-02-12T08:30:35.954Z,2.85
2019-02-12T08:33:31.388Z,2.27
2019-02-12T08:36:59.344Z,2.40
2019-02-12T08:40:12.669Z,2.40
2019-02-12T08:43:07.280Z,2.75
2019-02-12T08:46:06.027Z,1.90
2019-02-12T08:49:12.218Z,2.62
2019-02-12T08:52:06.817Z,2.30
2019-02-12T08:55:15.727Z,1.98
2019-02-12T08:58:32.624Z,2.15
2019-02-12T09:01:46.308Z,1.45
2019-02-12T09:04:58.799Z,2.02
2019-02-12T09:08:11.115Z,2.35
2019-02-12T09:11:20.397Z,3.95
2019-02-12T09:14:09.955Z,3.22
2019-02-12T09:17:29.702Z,2.50
2019-02-12T09:20:48.640Z,1.98
2019-02-12T09:24:00.621Z,1.87
2019-02-12T09:26:43.765Z,2.02
2019-02-12T09:29:48.629Z,2.20
2019-02-12T09:33:13.996Z,2.70
2019-02-12T09:36:18.603Z,2.27
2019-02-12T09:39:11.668Z,1.10
2019-02-12T09:41:48.077Z,1.55
2019-02-12T09:44:41.477Z,1.85
2019-02-12T09:47:30.573Z,2.62
2019-02-12T09:50:34.586Z,3.55
2019-02-12T09:53:29.058Z,2.40
2019-02-12T09:56:45.643Z,1.42
2019-02-12T09:59:21.499Z,1.95
2019-02-12T10:02:35.073Z,1.67
2019-02-12T10:06:06.439Z,2.15
2019-02-12T10:09:08.157Z,2.05
2019-02-12T10:12:14.633Z,1.98
2019-02-12T10:15:37.439Z,1.80
2019-02-12T10:18:43.220Z,2.17
2019-02-12T10:21:38.691Z,2.33
2019-02-12T10:24:19.614Z,2.95
2019-02-12T10:26:54.321Z,3.05
2019-02-12T10:29:51.584Z,2.33
2019-02-12T10:32:19.461Z,2.37
2019-02-12T10:34:49.139Z,1.72
2019-02-12T10:37:18.814Z,2.05
2019-02-12T10:39:48.456Z,2.10
2019-02-12T10:42:18.149Z,1.47
2019-02-12T10:44:47.791Z,3.17
2019-02-12T10:47:17.459Z,2.70
2019-02-12T10:49:47.093Z,2.00
2019-02-12T10:52:16.748Z,2.70
2019-02-12T10:54:49.326Z,3.15
2019-02-12T10:57:18.994Z,23.83
2019-02-12T10:59:48.630Z,2.75
2019-02-12T11:02:18.320Z,2.17
2019-02-12T11:04:48.097Z,1.87
2019-02-12T11:07:17.809Z,2.22
2019-02-12T11:09:47.490Z,2.77
2019-02-12T11:12:17.134Z,2.17
2019-02-12T11:14:46.774Z,2.45
2019-02-12T11:17:16.492Z,1.80
2019-02-12T11:19:46.126Z,2.50
2019-02-12T11:22:15.735Z,1.12
2019-02-12T11:24:45.389Z,3.50
2019-02-12T11:27:15.089Z,1.05
2019-02-12T11:29:44.720Z,1.25
2019-02-12T11:32:14.361Z,2.42
2019-02-12T11:34:44.105Z,2.75
2019-02-12T11:37:13.727Z,2.22
2019-02-12T11:39:43.454Z,1.80
2019-02-12T11:42:13.135Z,1.40
2019-02-12T11:44:42.791Z,2.02
2019-02-12T11:47:12.427Z,1.75
2019-02-12T11:49:42.136Z,1.77
2019-02-12T11:52:11.782Z,2.02
2019-02-12T11:54:43.712Z,1.80
2019-02-12T11:57:12.832Z,2.55
2019-02-12T11:59:42.440Z,1.40
2019-02-12T12:02:12.064Z,2.20
2019-02-12T12:04:41.697Z,1.72
2019-02-12T12:07:11.405Z,1.92
2019-02-12T12:09:41.063Z,2.05
2019-02-12T12:12:10.687Z,1.35
2019-02-12T12:14:40.406Z,2.20
2019-02-12T12:17:10.042Z,1.62
2019-02-12T12:19:40.008Z,1.77
2019-02-12T12:22:09.638Z,2.00
2019-02-12T12:24:39.255Z,1.80
2019-02-12T12:27:08.954Z,3.08
2019-02-12T12:29:38.609Z,1.50
2019-02-12T12:32:08.205Z,1.22
2019-02-12T12:34:37.839Z,1.60
2019-02-12T12:37:07.488Z,1.55
2019-02-12T12:39:37.268Z,1.47
2019-02-12T12:42:06.952Z,2.05
2019-02-12T12:44:36.596Z,2.40
2019-02-12T12:47:06.322Z,1.75
2019-02-12T12:49:35.932Z,1.77
2019-02-12T12:52:05.551Z,1.60
2019-02-12T12:54:35.254Z,3.37
2019-02-12T12:57:04.917Z,1.60
2019-02-12T12:59:34.568Z,1.35
2019-02-12T13:02:04.296Z,1.60
2019-02-12T13:04:33.935Z,1.92
2019-02-12T13:07:03.564Z,1.45
2019-02-12T13:09:33.288Z,2.05
2019-02-12T13:12:02.955Z,2.62
2019-02-12T13:14:32.638Z,1.42
2019-02-12T13:17:02.245Z,2.15
2019-02-12T13:19:31.883Z,3.00
2019-02-12T13:22:01.560Z,1.35
2019-02-12T13:24:31.240Z,1.87
2019-02-12T13:27:00.880Z,1.90
2019-02-12T13:29:30.483Z,1.70
2019-02-12T13:32:00.191Z,1.25
2019-02-12T13:34:29.795Z,1.50
2019-02-12T13:36:59.444Z,2.17
2019-02-12T13:39:29.108Z,2.52
2019-02-12T13:41:58.734Z,1.50
2019-02-12T13:44:28.537Z,2.02
2019-02-12T13:46:58.361Z,6.65
2019-02-12T13:49:28.134Z,1.90
2019-02-12T13:51:57.850Z,1.40
2019-02-12T13:54:27.569Z,2.08
2019-02-12T13:56:57.309Z,2.08
2019-02-12T13:59:27.718Z,1.87
2019-02-12T14:01:57.399Z,2.25
2019-02-12T14:04:27.083Z,2.75
2019-02-12T14:06:56.832Z,1.95
2019-02-12T14:09:26.560Z,2.83
2019-02-12T14:11:56.217Z,3.00
2019-02-12T14:14:25.882Z,2.00
2019-02-12T14:16:55.573Z,1.70
2019-02-12T14:19:25.284Z,2.05
2019-02-12T14:21:54.986Z,2.05
2019-02-12T14:24:24.705Z,3.47
2019-02-12T14:26:54.495Z,6.00
2019-02-12T14:29:24.162Z,3.70
2019-02-12T14:31:53.820Z,2.22
2019-02-12T14:34:23.499Z,2.42
2019-02-12T14:36:53.185Z,1.47
2019-02-12T14:39:22.846Z,2.70
2019-02-12T14:41:52.617Z,1.77
2019-02-12T14:44:22.343Z,2.05
2019-02-12T14:46:51.956Z,1.50
2019-02-12T14:49:21.616Z,1.55
2019-02-12T14:51:51.225Z,3.02
2019-02-12T14:54:20.834Z,1.10
2019-02-12T14:56:50.463Z,1.42
2019-02-12T14:59:20.155Z,1.92
2019-02-12T15:01:49.746Z,1.30
2019-02-12T15:04:19.508Z,1.60
2019-02-12T15:06:49.171Z,1.65
2019-02-12T15:09:18.886Z,1.82
2019-02-12T15:11:50.214Z,2.45
2019-02-12T15:14:20.160Z,1.80
2019-02-12T15:16:49.835Z,2.30
2019-02-12T15:19:19.446Z,2.00
2019-02-12T15:21:49.090Z,1.92
2019-02-12T15:24:18.859Z,1.85
2019-02-12T15:26:48.609Z,2.40
2019-02-12T15:29:18.429Z,5.12
2019-02-12T15:31:48.568Z,3.42
2019-02-12T15:34:18.158Z,2.30
2019-02-12T15:36:47.852Z,2.40
2019-02-12T15:39:17.585Z,2.65
2019-02-12T15:41:47.225Z,1.72
2019-02-12T15:44:17.475Z,2.83
2019-02-12T15:46:47.079Z,1.50
2019-02-12T15:49:16.713Z,1.82
2019-02-12T15:51:46.348Z,2.85
2019-02-12T15:54:16.079Z,2.30
2019-02-12T15:56:45.787Z,2.20
2019-02-12T15:59:16.383Z,2.20
2019-02-12T16:01:47.069Z,3.20
2019-02-12T16:04:17.350Z,2.92
2019-02-12T16:06:47.170Z,2.85
2019-02-12T16:09:17.735Z,1.90
2019-02-12T16:11:47.526Z,3.15
2019-02-12T16:14:18.619Z,2.27
2019-02-12T16:16:50.025Z,1.87
2019-02-12T16:19:19.843Z,3.33
2019-02-12T16:21:49.516Z,2.90
2019-02-12T16:24:19.133Z,3.35
2019-02-12T16:26:48.722Z,2.90
2019-02-12T16:29:18.467Z,3.52
2019-02-12T16:31:48.066Z,2.90
2019-02-12T16:34:17.785Z,3.80
2019-02-12T16:36:47.445Z,3.90
2019-02-12T16:39:17.162Z,3.45
2019-02-12T16:41:46.993Z,3.40
2019-02-12T16:44:16.570Z,3.00
2019-02-12T16:46:46.317Z,3.25
2019-02-12T16:49:16.028Z,2.52
2019-02-12T16:51:45.741Z,2.12
2019-02-12T16:54:15.407Z,3.30
2019-02-12T16:56:45.180Z,3.40
2019-02-12T16:59:14.867Z,2.50
2019-02-12T17:01:44.547Z,4.03
2019-02-12T17:04:14.219Z,2.30
2019-02-12T17:06:43.904Z,3.83
2019-02-12T17:09:14.120Z,3.65
2019-02-12T17:11:43.832Z,2.92
2019-02-12T17:14:13.483Z,2.77
2019-02-12T17:16:43.122Z,2.42
2019-02-12T17:19:12.837Z,3.27
2019-02-12T17:21:42.496Z,2.77
2019-02-12T17:24:12.187Z,3.05
2019-02-12T17:26:41.893Z,3.83
2019-02-12T17:29:11.656Z,4.20
2019-02-12T17:31:41.296Z,3.83
2019-02-12T17:34:11.051Z,3.25
2019-02-12T17:36:40.913Z,3.50
2019-02-12T17:39:10.609Z,3.25
2019-02-12T17:41:40.236Z,4.42
2019-02-12T17:44:09.961Z,3.50
2019-02-12T17:46:39.618Z,3.20
2019-02-12T17:49:09.252Z,4.17
2019-02-12T17:51:40.283Z,2.52
2019-02-12T17:54:10.029Z,2.30
2019-02-12T17:56:39.720Z,2.90
2019-02-12T17:59:09.489Z,3.75
2019-02-12T18:01:39.162Z,2.95
2019-02-12T18:04:08.940Z,4.20
2019-02-12T18:06:38.550Z,2.70
2019-02-12T18:09:08.845Z,2.70
2019-02-12T18:11:38.528Z,3.05
2019-02-12T18:14:08.339Z,3.00
2019-02-12T18:16:38.228Z,3.52
2019-02-12T18:19:07.949Z,4.85
2019-02-12T18:21:37.614Z,3.90
2019-02-12T18:24:07.468Z,4.33
2019-02-12T18:26:37.274Z,4.70
2019-02-12T18:29:06.898Z,8.23
2019-02-12T18:31:36.668Z,4.42
2019-02-12T18:34:06.374Z,2.90
2019-02-12T18:36:36.069Z,3.70
2019-02-12T18:39:06.966Z,3.15
2019-02-12T18:41:36.773Z,6.00
2019-02-12T18:44:06.427Z,3.10
2019-02-12T18:46:36.632Z,4.20
2019-02-12T18:49:06.344Z,3.70
2019-02-12T18:51:36.029Z,5.37
2019-02-12T18:54:05.723Z,4.20
2019-02-12T18:56:41.420Z,6.37
2019-02-12T18:59:06.695Z,4.45
2019-02-12T19:01:36.313Z,4.25
2019-02-12T19:04:06.116Z,4.37
2019-02-12T19:06:35.843Z,4.47
2019-02-12T19:09:09.042Z,3.10
2019-02-12T19:11:45.918Z,5.35
2019-02-12T19:14:10.088Z,3.70
2019-02-12T19:16:39.862Z,3.55
2019-02-12T19:19:09.587Z,4.78
2019-02-12T19:21:39.419Z,3.58
2019-02-12T19:24:09.045Z,4.75
2019-02-12T19:26:38.756Z,6.05
2019-02-12T19:29:08.426Z,4.67
2019-02-12T19:31:38.154Z,4.90
2019-02-12T19:34:07.808Z,4.42
2019-02-12T19:36:37.496Z,8.05
2019-02-12T19:39:07.384Z,8.58
2019-02-12T19:41:37.084Z,5.65
2019-02-12T19:44:06.761Z,5.83
2019-02-12T19:46:36.510Z,6.28
2019-02-12T19:49:06.228Z,7.40
2019-02-12T19:51:35.919Z,5.72
2019-02-12T19:54:05.634Z,9.40
2019-02-12T19:56:35.390Z,5.90
2019-02-12T19:59:05.081Z,4.90
2019-02-12T20:01:34.742Z,5.28
2019-02-12T20:04:04.514Z,5.55
2019-02-12T20:06:34.215Z,5.45
2019-02-12T20:09:05.497Z,5.90
2019-02-12T20:11:35.217Z,5.35
2019-02-12T20:14:04.871Z,6.25
2019-02-12T20:16:34.647Z,6.80
2019-02-12T20:19:04.287Z,7.25
2019-02-12T20:21:33.996Z,6.08
2019-02-12T20:24:03.640Z,9.23
2019-02-12T20:26:33.733Z,4.83
2019-02-12T20:29:03.428Z,7.05
2019-02-12T20:31:33.088Z,5.25
2019-02-12T20:34:02.785Z,4.65
2019-02-12T20:36:32.420Z,4.47
2019-02-12T20:39:02.097Z,4.80
2019-02-12T20:41:31.812Z,4.97
2019-02-12T20:44:01.505Z,5.17
2019-02-12T20:46:31.172Z,4.58
2019-02-12T20:49:01.006Z,4.15
2019-02-12T20:51:34.822Z,4.60
2019-02-12T20:54:04.484Z,5.58
2019-02-12T20:56:34.171Z,4.35
2019-02-12T20:59:03.803Z,4.70
2019-02-12T21:01:33.505Z,4.65
2019-02-12T21:04:03.196Z,4.65
2019-02-12T21:06:32.809Z,4.45
2019-02-12T21:09:02.395Z,4.58
2019-02-12T21:11:31.992Z,5.70
2019-02-12T21:14:01.583Z,5.10
2019-02-12T21:16:31.337Z,4.58
2019-02-12T21:19:00.914Z,4.65
2019-02-12T21:21:30.522Z,5.35
2019-02-12T21:24:00.134Z,5.10
2019-02-12T21:26:29.745Z,5.80
2019-02-12T21:28:59.364Z,5.25
2019-02-12T21:31:28.991Z,5.10
2019-02-12T21:33:58.607Z,3.77
2019-02-12T21:36:28.239Z,4.42
2019-02-12T21:38:57.861Z,5.60
2019-02-12T21:41:27.492Z,3.42
2019-02-12T21:43:57.079Z,4.05
2019-02-12T21:46:26.804Z,3.90
2019-02-12T21:48:56.477Z,3.85
2019-02-12T21:51:26.251Z,4.15
2019-02-12T21:53:55.928Z,4.42
2019-02-12T21:56:25.477Z,4.15
2019-02-12T21:58:55.067Z,3.72
2019-02-12T22:01:24.729Z,4.15
2019-02-12T22:03:54.323Z,4.30
2019-02-12T22:06:23.952Z,5.62
2019-02-12T22:08:53.590Z,4.45
2019-02-12T22:11:23.290Z,4.97
2019-02-12T22:13:52.907Z,4.37
2019-02-12T22:16:22.638Z,5.17
2019-02-12T22:18:52.256Z,4.75
2019-02-12T22:21:21.877Z,4.20
2019-02-12T22:23:51.512Z,4.65
2019-02-12T22:26:21.118Z,5.58
2019-02-12T22:28:50.959Z,5.10
2019-02-12T22:31:20.628Z,4.40
2019-02-12T22:33:50.260Z,5.10
2019-02-12T22:36:19.904Z,5.20
2019-02-12T22:38:49.513Z,6.08
2019-02-12T22:41:19.246Z,5.40
2019-02-12T22:43:48.940Z,5.67
2019-02-12T22:46:18.668Z,5.60
2019-02-12T22:48:48.287Z,5.65
2019-02-12T22:51:17.904Z,5.37
2019-02-12T22:53:47.536Z,5.67
2019-02-12T22:56:17.147Z,5.70
2019-02-12T22:58:46.865Z,5.70
2019-02-12T23:01:16.725Z,7.00
2019-02-12T23:03:46.327Z,7.37
2019-02-12T23:06:15.941Z,7.80
2019-02-12T23:08:45.568Z,7.58
2019-02-12T23:11:15.229Z,8.28
2019-02-12T23:13:44.822Z,7.15
2019-02-12T23:16:14.431Z,7.47
2019-02-12T23:18:44.051Z,8.40
2019-02-12T23:21:13.650Z,9.50
2019-02-12T23:23:43.299Z,8.98
2019-02-12T23:26:12.897Z,7.05
2019-02-12T23:28:42.522Z,9.20
2019-02-12T23:31:12.157Z,9.63
2019-02-12T23:33:41.793Z,8.78
2019-02-12T23:36:11.380Z,10.25
2019-02-12T23:38:41.111Z,10.20
2019-02-12T23:41:10.731Z,12.00
2019-02-12T23:43:40.341Z,11.18
2019-02-12T23:46:09.985Z,13.25
2019-02-12T23:48:39.606Z,12.05
2019-02-12T23:51:09.214Z,11.28
2019-02-12T23:53:38.915Z,13.68
2019-02-12T23:56:08.541Z,13.80
2019-02-12T23:58:38.165Z,13.48
